createdAt,value
2023-05-23T00:01:14.913Z,10.00
2023-05-23T00:03:43.295Z,10.70
2023-05-23T00:06:11.037Z,10.10
2023-05-23T00:08:38.769Z,10.80
2023-05-23T00:11:06.637Z,9.50
2023-05-23T00:13:35.949Z,10.40
2023-05-23T00:16:03.753Z,10.10
2023-05-23T00:18:31.900Z,10.10
2023-05-23T00:21:00.102Z,9.80
2023-05-23T00:23:29.870Z,11.00
2023-05-23T00:25:58.706Z,10.30
2023-05-23T00:28:27.321Z,9.60
2023-05-23T00:30:55.120Z,9.90
2023-05-23T00:33:23.883Z,9.40
2023-05-23T00:35:51.715Z,8.70
2023-05-23T00:38:19.510Z,9.90
2023-05-23T00:40:48.467Z,10.40
2023-05-23T00:43:16.776Z,10.60
2023-05-23T00:45:44.554Z,10.20
2023-05-23T00:48:12.916Z,10.50
2023-05-23T00:50:41.333Z,10.50
2023-05-23T00:53:09.163Z,9.70
2023-05-23T00:55:37.225Z,9.80
2023-05-23T00:58:06.786Z,9.40
2023-05-23T01:00:35.971Z,10.90
2023-05-23T01:03:04.271Z,10.40
2023-05-23T01:05:32.152Z,10.40
2023-05-23T01:08:00.120Z,10.20
2023-05-23T01:10:31.501Z,9.60
2023-05-23T01:13:17.469Z,9.70
2023-05-23T01:15:47.897Z,8.40
2023-05-23T01:18:21.796Z,9.70
2023-05-23T01:20:57.654Z,8.80
2023-05-23T01:23:42.962Z,8.80
2023-05-23T01:26:35.259Z,8.70
2023-05-23T01:29:10.741Z,8.20
2023-05-23T01:31:46.022Z,9.60
2023-05-23T01:34:15.213Z,8.90
2023-05-23T01:36:43.776Z,8.60
2023-05-23T01:39:12.502Z,9.20
2023-05-23T01:41:41.072Z,9.30
2023-05-23T01:44:09.314Z,8.80
2023-05-23T01:46:40.030Z,9.20
2023-05-23T01:49:11.787Z,8.70
2023-05-23T01:51:40.000Z,8.70
2023-05-23T01:54:08.198Z,8.90
2023-05-23T01:56:36.367Z,8.30
2023-05-23T01:59:04.961Z,9.00
2023-05-23T02:01:33.771Z,8.50
2023-05-23T02:04:01.528Z,9.70
2023-05-23T02:06:29.311Z,8.60
2023-05-23T02:08:57.056Z,9.90
2023-05-23T02:11:25.235Z,9.10
2023-05-23T02:13:53.407Z,8.40
2023-05-23T02:16:22.019Z,8.60
2023-05-23T02:18:52.808Z,9.00
2023-05-23T02:21:20.662Z,8.30
2023-05-23T02:23:48.831Z,9.00
2023-05-23T02:26:18.110Z,9.10
2023-05-23T02:28:45.831Z,9.30
2023-05-23T02:31:13.616Z,9.50
2023-05-23T02:33:41.378Z,10.10
2023-05-23T02:36:09.120Z,9.20
2023-05-23T02:38:37.377Z,8.80
2023-05-23T02:41:05.609Z,9.20
2023-05-23T02:43:33.414Z,9.00
2023-05-23T02:46:01.236Z,9.10
2023-05-23T02:48:28.969Z,8.50
2023-05-23T02:50:56.750Z,9.50
2023-05-23T02:53:25.077Z,9.10
2023-05-23T02:55:53.267Z,8.40
2023-05-23T02:58:21.006Z,8.90
2023-05-23T03:00:48.789Z,8.80
2023-05-23T03:03:17.792Z,8.70
2023-05-23T03:05:45.744Z,8.70
2023-05-23T03:08:13.487Z,8.40
2023-05-23T03:10:41.833Z,8.10
2023-05-23T03:13:09.613Z,8.00
2023-05-23T03:15:37.374Z,8.50
2023-05-23T03:18:05.200Z,8.50
2023-05-23T03:20:32.997Z,8.10
2023-05-23T03:23:00.861Z,8.70
2023-05-23T03:25:28.676Z,8.90
2023-05-23T03:27:56.549Z,8.70
2023-05-23T03:30:24.407Z,8.20
2023-05-23T03:32:53.978Z,8.40
2023-05-23T03:35:21.776Z,8.40
2023-05-23T03:37:49.574Z,7.90
2023-05-23T03:40:17.417Z,9.00
2023-05-23T03:42:45.182Z,8.70
2023-05-23T03:45:12.916Z,9.90
2023-05-23T03:47:40.938Z,8.90
2023-05-23T03:50:09.144Z,9.60
2023-05-23T03:52:37.342Z,9.70
2023-05-23T03:55:05.514Z,8.90
2023-05-23T03:57:33.310Z,9.60
2023-05-23T04:00:01.081Z,9.70
2023-05-23T04:02:29.481Z,9.20
2023-05-23T04:04:58.201Z,11.10
2023-05-23T04:07:26.833Z,10.90
2023-05-23T04:09:54.624Z,10.10
2023-05-23T04:12:41.835Z,10.70
2023-05-23T04:15:10.368Z,10.70
2023-05-23T04:17:39.124Z,9.90
2023-05-23T04:20:09.797Z,9.80
2023-05-23T04:22:37.550Z,10.50
2023-05-23T04:25:06.597Z,10.70
2023-05-23T04:27:34.864Z,10.10
2023-05-23T04:30:03.150Z,10.00
2023-05-23T04:32:30.916Z,10.40
2023-05-23T04:34:58.664Z,9.60
2023-05-23T04:37:26.600Z,9.70
2023-05-23T04:39:54.535Z,10.30
2023-05-23T04:42:24.739Z,9.40
2023-05-23T04:44:56.933Z,9.60
2023-05-23T04:47:28.996Z,8.60
2023-05-23T04:49:57.681Z,10.30
2023-05-23T04:52:27.574Z,9.70
2023-05-23T04:54:56.202Z,9.40
2023-05-23T04:57:24.559Z,8.90
2023-05-23T04:59:52.984Z,8.20
2023-05-23T05:02:20.801Z,8.40
2023-05-23T05:04:48.680Z,8.40
2023-05-23T05:07:17.379Z,7.90
2023-05-23T05:09:45.731Z,8.40
2023-05-23T05:12:14.402Z,8.20
2023-05-23T05:14:42.169Z,8.90
2023-05-23T05:17:09.921Z,8.10
2023-05-23T05:19:37.742Z,8.10
2023-05-23T05:22:05.462Z,8.20
2023-05-23T05:24:33.638Z,7.30
2023-05-23T05:27:01.954Z,7.80
2023-05-23T05:29:29.679Z,7.80
2023-05-23T05:31:57.457Z,7.80
2023-05-23T05:34:25.136Z,7.50
2023-05-23T05:36:56.121Z,7.80
2023-05-23T05:39:26.559Z,7.90
2023-05-23T05:41:54.941Z,7.10
2023-05-23T05:44:22.675Z,6.90
2023-05-23T05:46:50.777Z,9.00
2023-05-23T05:49:18.514Z,8.00
2023-05-23T05:51:46.237Z,8.30
2023-05-23T05:54:14.147Z,9.00
2023-05-23T05:56:42.418Z,7.40
2023-05-23T05:59:10.575Z,7.80
2023-05-23T06:01:38.377Z,8.50
2023-05-23T06:04:06.423Z,8.20
2023-05-23T06:06:34.317Z,8.70
2023-05-23T06:09:02.071Z,8.50
2023-05-23T06:11:30.991Z,7.60
2023-05-23T06:13:59.089Z,9.20
2023-05-23T06:16:27.118Z,7.60
2023-05-23T06:18:54.879Z,7.70
2023-05-23T06:21:22.735Z,8.60
2023-05-23T06:23:51.017Z,8.00
2023-05-23T06:26:19.292Z,8.90
2023-05-23T06:28:47.073Z,7.90
2023-05-23T06:31:14.928Z,8.00
2023-05-23T06:33:43.262Z,8.10
2023-05-23T06:36:11.154Z,8.40
2023-05-23T06:38:39.523Z,8.40
2023-05-23T06:41:07.752Z,8.50
2023-05-23T06:43:35.799Z,8.30
2023-05-23T06:46:03.584Z,8.10
2023-05-23T06:48:31.385Z,8.60
2023-05-23T06:50:59.254Z,8.30
2023-05-23T06:53:27.521Z,7.70
2023-05-23T06:55:55.781Z,8.70
2023-05-23T06:58:25.272Z,8.80
2023-05-23T07:00:53.201Z,8.60
2023-05-23T07:03:20.996Z,8.40
2023-05-23T07:05:48.878Z,8.30
2023-05-23T07:08:17.167Z,7.80
2023-05-23T07:10:45.489Z,7.60
2023-05-23T07:13:13.255Z,7.60
2023-05-23T07:15:41.104Z,8.30
2023-05-23T07:18:08.875Z,8.70
2023-05-23T07:20:36.591Z,8.40
2023-05-23T07:23:04.922Z,8.00
2023-05-23T07:25:33.167Z,8.20
2023-05-23T07:28:00.956Z,8.30
2023-05-23T07:30:29.585Z,8.40
2023-05-23T07:32:58.784Z,9.30
2023-05-23T07:35:26.841Z,8.00
2023-05-23T07:37:56.219Z,7.70
2023-05-23T07:40:24.906Z,7.60
2023-05-23T07:42:53.370Z,8.30
2023-05-23T07:45:21.177Z,7.40
2023-05-23T07:47:49.535Z,8.20
2023-05-23T07:50:17.875Z,7.20
2023-05-23T07:52:45.778Z,6.60
2023-05-23T07:55:14.237Z,8.20
2023-05-23T07:57:42.478Z,7.50
2023-05-23T08:00:12.338Z,6.60
2023-05-23T08:02:40.054Z,7.40
2023-05-23T08:05:08.751Z,7.00
2023-05-23T08:07:36.521Z,8.20
2023-05-23T08:10:05.069Z,7.50
2023-05-23T08:12:34.006Z,6.90
2023-05-23T08:15:01.820Z,7.70
2023-05-23T08:17:29.667Z,6.30
2023-05-23T08:19:57.458Z,6.50
2023-05-23T08:22:25.235Z,6.40
2023-05-23T08:24:53.385Z,6.40
2023-05-23T08:27:21.681Z,6.60
2023-05-23T08:29:49.474Z,6.60
2023-05-23T08:32:17.300Z,6.80
2023-05-23T08:34:45.071Z,5.50
2023-05-23T08:37:13.085Z,5.80
2023-05-23T08:39:41.755Z,5.90
2023-05-23T08:42:10.313Z,5.70
2023-05-23T08:44:38.565Z,5.70
2023-05-23T08:47:08.607Z,6.00
2023-05-23T08:49:38.686Z,5.50
2023-05-23T08:52:12.323Z,5.50
2023-05-23T08:54:41.646Z,5.40
2023-05-23T08:57:10.949Z,4.60
2023-05-23T08:59:39.312Z,5.60
2023-05-23T09:02:12.031Z,4.90
2023-05-23T09:04:40.084Z,5.70
2023-05-23T09:07:08.278Z,5.50
2023-05-23T09:09:36.682Z,4.80
2023-05-23T09:12:05.370Z,5.20
2023-05-23T09:14:33.217Z,4.90
2023-05-23T09:17:04.552Z,5.60
2023-05-23T09:19:33.643Z,5.10
2023-05-23T09:22:02.512Z,5.00
2023-05-23T09:24:38.077Z,4.60
2023-05-23T09:27:07.721Z,4.70
2023-05-23T09:29:42.077Z,5.10
2023-05-23T09:32:15.108Z,5.00
2023-05-23T09:34:56.393Z,5.10
2023-05-23T09:37:39.498Z,4.60
2023-05-23T09:40:13.249Z,4.60
2023-05-23T09:42:45.938Z,4.40
2023-05-23T09:45:16.312Z,4.90
2023-05-23T09:47:54.182Z,4.80
2023-05-23T09:50:23.140Z,4.70
2023-05-23T09:52:51.408Z,4.70
2023-05-23T09:55:20.206Z,5.30
2023-05-23T09:57:56.918Z,4.60
2023-05-23T10:00:25.616Z,4.60
2023-05-23T10:03:13.210Z,5.10
2023-05-23T10:05:53.875Z,5.30
2023-05-23T10:08:30.161Z,4.50
2023-05-23T10:10:58.081Z,4.40
2023-05-23T10:13:27.313Z,5.00
2023-05-23T10:16:03.562Z,5.40
2023-05-23T10:18:39.810Z,3.90
2023-05-23T10:21:12.345Z,5.10
2023-05-23T10:23:40.953Z,4.60
2023-05-23T10:26:09.557Z,4.60
2023-05-23T10:28:37.901Z,4.70
2023-05-23T10:31:06.071Z,4.50
2023-05-23T10:33:41.769Z,4.80
2023-05-23T10:36:20.794Z,4.20
2023-05-23T10:39:02.278Z,4.60
2023-05-23T10:41:36.271Z,4.80
2023-05-23T10:44:12.997Z,4.40
2023-05-23T10:47:01.454Z,4.20
2023-05-23T10:49:47.230Z,4.70
2023-05-23T10:52:17.825Z,4.70
2023-05-23T10:54:52.042Z,4.60
2023-05-23T10:57:21.942Z,4.50
2023-05-23T10:59:52.126Z,5.00
2023-05-23T11:02:26.061Z,4.90
2023-05-23T11:05:15.774Z,4.30
2023-05-23T11:07:43.614Z,4.70
2023-05-23T11:10:16.858Z,4.40
2023-05-23T11:15:19.533Z,4.60
2023-05-23T11:17:55.272Z,4.70
2023-05-23T11:20:31.548Z,4.70
2023-05-23T11:23:01.525Z,4.20
2023-05-23T11:25:41.194Z,5.60
2023-05-23T11:28:13.749Z,4.90
2023-05-23T11:30:42.165Z,5.00
2023-05-23T11:33:15.373Z,4.80
2023-05-23T11:35:48.797Z,4.40
2023-05-23T11:38:17.584Z,4.70
2023-05-23T11:40:47.780Z,4.40
2023-05-23T11:43:18.226Z,5.00
2023-05-23T11:45:49.013Z,4.30
2023-05-23T11:48:17.698Z,4.60
2023-05-23T11:50:53.749Z,4.40
2023-05-23T11:53:25.468Z,4.60
2023-05-23T11:56:00.668Z,5.00
2023-05-23T11:58:30.845Z,4.30
2023-05-23T12:01:01.185Z,4.90
2023-05-23T12:03:29.630Z,5.60
2023-05-23T12:06:02.047Z,4.60
2023-05-23T12:08:30.536Z,4.50
2023-05-23T12:11:01.506Z,4.20
2023-05-23T12:13:30.288Z,4.10
2023-05-23T12:16:00.605Z,4.50
2023-05-23T12:18:31.628Z,4.50
2023-05-23T12:21:06.085Z,4.80
2023-05-23T12:23:36.011Z,4.60
2023-05-23T12:26:07.728Z,4.50
2023-05-23T12:28:42.442Z,5.40
2023-05-23T12:31:22.620Z,4.70
2023-05-23T12:33:53.507Z,5.00
2023-05-23T12:36:24.757Z,4.80
2023-05-23T12:38:52.583Z,5.00
2023-05-23T12:41:22.212Z,5.60
2023-05-23T12:43:52.472Z,5.40
2023-05-23T12:46:28.254Z,4.70
2023-05-23T12:48:56.562Z,5.30
2023-05-23T12:51:24.302Z,4.30
2023-05-23T12:53:52.239Z,4.90
2023-05-23T12:56:21.471Z,4.90
2023-05-23T12:58:50.036Z,4.80
2023-05-23T13:01:18.394Z,4.80
2023-05-23T13:03:46.494Z,5.20
2023-05-23T13:06:14.414Z,5.00
2023-05-23T13:08:42.867Z,4.80
2023-05-23T13:11:11.006Z,4.90
2023-05-23T13:13:39.861Z,4.80
2023-05-23T13:16:07.744Z,4.50
2023-05-23T13:18:35.537Z,4.50
2023-05-23T13:21:03.606Z,4.90
2023-05-23T13:23:31.409Z,4.90
2023-05-23T13:25:59.783Z,4.80
2023-05-23T13:28:28.160Z,4.80
2023-05-23T13:30:56.119Z,4.90
2023-05-23T13:33:24.132Z,4.50
2023-05-23T13:35:52.605Z,5.20
2023-05-23T13:38:21.205Z,4.80
2023-05-23T13:40:51.880Z,5.00
2023-05-23T13:43:20.385Z,5.10
2023-05-23T13:45:48.337Z,4.80
2023-05-23T13:48:16.288Z,4.90
2023-05-23T13:50:44.414Z,4.40
2023-05-23T13:53:15.158Z,5.20
2023-05-23T13:55:45.406Z,4.90
2023-05-23T13:58:13.942Z,4.50
2023-05-23T14:00:42.216Z,4.40
2023-05-23T14:03:10.588Z,5.00
2023-05-23T14:05:38.700Z,4.50
2023-05-23T14:08:07.030Z,4.50
2023-05-23T14:10:35.298Z,5.10
2023-05-23T14:13:03.791Z,5.00
2023-05-23T14:15:33.021Z,5.00
2023-05-23T14:18:02.538Z,5.30
2023-05-23T14:20:30.453Z,4.50
2023-05-23T14:22:58.169Z,5.00
2023-05-23T14:25:26.506Z,4.70
2023-05-23T14:27:54.761Z,4.60
2023-05-23T14:30:22.527Z,3.70
2023-05-23T14:32:50.335Z,5.50
2023-05-23T14:35:18.110Z,5.20
2023-05-23T14:37:46.989Z,4.60
2023-05-23T14:40:16.588Z,5.30
2023-05-23T14:42:44.941Z,4.50
2023-05-23T14:45:12.749Z,4.70
2023-05-23T14:47:40.536Z,9.70
2023-05-23T14:50:09.637Z,6.80
2023-05-23T14:52:37.398Z,5.10
2023-05-23T14:55:05.608Z,4.50
2023-05-23T14:57:34.308Z,4.60
2023-05-23T15:00:05.654Z,5.80
2023-05-23T15:02:33.476Z,4.60
2023-05-23T15:05:01.773Z,4.40
2023-05-23T15:07:30.665Z,4.60
2023-05-23T15:09:58.786Z,4.50
2023-05-23T15:12:27.004Z,4.80
2023-05-23T15:15:02.915Z,6.10
2023-05-23T15:17:32.523Z,3.90
2023-05-23T15:20:00.830Z,4.50
2023-05-23T15:22:38.477Z,4.30
2023-05-23T15:25:11.350Z,4.70
2023-05-23T15:27:39.130Z,4.30
2023-05-23T15:30:07.768Z,4.90
2023-05-23T15:32:35.513Z,5.30
2023-05-23T15:35:03.554Z,4.50
2023-05-23T15:37:31.779Z,4.40
2023-05-23T15:39:59.524Z,4.20
2023-05-23T15:42:27.289Z,4.80
2023-05-23T15:44:55.017Z,5.00
2023-05-23T15:47:22.964Z,4.70
2023-05-23T15:49:50.809Z,5.10
2023-05-23T15:52:19.045Z,4.70
2023-05-23T15:54:47.100Z,4.80
2023-05-23T15:57:15.074Z,5.00
2023-05-23T15:59:42.801Z,4.70
2023-05-23T16:02:11.034Z,4.20
2023-05-23T16:04:39.055Z,5.30
2023-05-23T16:07:07.202Z,4.70
2023-05-23T16:09:34.932Z,4.90
2023-05-23T16:12:02.765Z,5.10
2023-05-23T16:14:31.441Z,5.00
2023-05-23T16:17:02.907Z,4.70
2023-05-23T16:19:30.791Z,4.50
2023-05-23T16:21:59.713Z,3.90
2023-05-23T16:24:28.245Z,4.30
2023-05-23T16:26:56.332Z,4.90
2023-05-23T16:29:24.032Z,4.20
2023-05-23T16:31:51.789Z,4.40
2023-05-23T16:34:19.966Z,4.40
2023-05-23T16:36:47.809Z,4.30
2023-05-23T16:39:16.268Z,4.80
2023-05-23T16:41:44.116Z,4.80
2023-05-23T16:44:11.898Z,5.00
2023-05-23T16:46:39.796Z,4.30
2023-05-23T16:49:08.360Z,4.50
2023-05-23T16:51:36.686Z,4.70
2023-05-23T16:54:04.565Z,4.60
2023-05-23T16:56:32.368Z,4.40
2023-05-23T16:59:00.156Z,4.90
2023-05-23T17:01:29.375Z,4.50
2023-05-23T17:03:57.728Z,4.50
2023-05-23T17:06:26.101Z,4.80
2023-05-23T17:08:53.880Z,4.80
2023-05-23T17:11:21.906Z,4.60
2023-05-23T17:13:49.619Z,4.40
2023-05-23T17:16:20.468Z,4.30
2023-05-23T17:18:48.582Z,5.00
2023-05-23T17:21:16.993Z,4.50
2023-05-23T17:23:44.743Z,4.80
2023-05-23T17:26:12.667Z,4.60
2023-05-23T17:28:40.882Z,5.00
2023-05-23T17:31:08.645Z,5.00
2023-05-23T17:33:36.733Z,4.70
2023-05-23T17:36:05.448Z,4.30
2023-05-23T17:38:33.233Z,4.50
2023-05-23T17:41:01.549Z,5.10
2023-05-23T17:43:29.257Z,5.60
2023-05-23T17:45:58.129Z,5.70
2023-05-23T17:48:42.573Z,5.50
2023-05-23T17:51:14.929Z,6.10
2023-05-23T17:53:42.802Z,5.20
2023-05-23T17:56:11.016Z,6.10
2023-05-23T17:58:41.651Z,5.60
2023-05-23T18:01:11.896Z,7.70
2023-05-23T18:03:40.130Z,6.30
2023-05-23T18:06:08.396Z,5.80
2023-05-23T18:08:36.355Z,5.50
2023-05-23T18:11:04.079Z,5.10
2023-05-23T18:13:32.428Z,5.70
2023-05-23T18:16:00.705Z,5.90
2023-05-23T18:18:28.589Z,6.10
2023-05-23T18:20:56.745Z,6.00
2023-05-23T18:23:24.506Z,6.00
2023-05-23T18:25:52.871Z,5.50
2023-05-23T18:28:21.675Z,5.20
2023-05-23T18:30:49.950Z,5.60
2023-05-23T18:33:17.803Z,5.70
2023-05-23T18:35:47.001Z,6.40
2023-05-23T18:38:14.822Z,6.20
2023-05-23T18:40:42.761Z,5.90
2023-05-23T18:43:12.474Z,5.90
2023-05-23T18:45:40.858Z,6.20
2023-05-23T18:48:09.332Z,5.90
2023-05-23T18:50:38.784Z,6.60
2023-05-23T18:53:07.193Z,7.70
2023-05-23T18:55:36.350Z,7.50
2023-05-23T18:58:04.848Z,8.20
2023-05-23T19:00:32.604Z,7.30
2023-05-23T19:03:01.194Z,8.60
2023-05-23T19:05:29.616Z,7.50
2023-05-23T19:07:58.165Z,8.20
2023-05-23T19:10:26.442Z,7.80
2023-05-23T19:12:54.835Z,8.20
2023-05-23T19:15:22.980Z,8.10
2023-05-23T19:17:51.309Z,8.20
2023-05-23T19:20:20.213Z,7.50
2023-05-23T19:22:52.356Z,7.60
2023-05-23T19:25:21.597Z,8.00
2023-05-23T19:27:49.869Z,7.90
2023-05-23T19:30:18.397Z,8.70
2023-05-23T19:32:46.940Z,7.50
2023-05-23T19:35:16.875Z,8.20
2023-05-23T19:37:45.241Z,8.30
2023-05-23T19:40:13.571Z,8.20
2023-05-23T19:42:41.821Z,8.60
2023-05-23T19:45:10.534Z,8.40
2023-05-23T19:47:38.347Z,8.20
2023-05-23T19:50:08.896Z,8.10
2023-05-23T19:52:36.790Z,8.10
2023-05-23T19:55:05.358Z,7.30
2023-05-23T19:57:33.339Z,8.30
2023-05-23T20:00:02.286Z,7.10
2023-05-23T20:02:30.030Z,7.60
2023-05-23T20:04:58.268Z,7.90
2023-05-23T20:07:26.064Z,7.90
2023-05-23T20:09:55.289Z,8.00
2023-05-23T20:12:23.569Z,7.90
2023-05-23T20:14:51.882Z,8.40
2023-05-23T20:17:19.717Z,8.40
2023-05-23T20:19:47.692Z,8.30
2023-05-23T20:22:16.099Z,9.30
2023-05-23T20:24:43.908Z,9.00
2023-05-23T20:27:12.192Z,8.70
2023-05-23T20:29:40.903Z,9.70
2023-05-23T20:32:08.693Z,8.60
2023-05-23T20:34:36.906Z,9.20
2023-05-23T20:37:05.410Z,10.10
2023-05-23T20:39:52.459Z,10.80
2023-05-23T20:42:20.900Z,9.90
2023-05-23T20:44:49.267Z,10.40
2023-05-23T20:47:17.802Z,14.30
2023-05-23T20:49:47.750Z,19.90
2023-05-23T20:52:15.712Z,24.60
2023-05-23T20:54:43.501Z,25.50
2023-05-23T20:57:11.749Z,36.90
2023-05-23T20:59:40.887Z,77.00
2023-05-23T21:02:09.046Z,120.00
2023-05-23T21:04:36.929Z,132.70
2023-05-23T21:07:05.200Z,124.30
2023-05-23T21:09:32.992Z,112.40
2023-05-23T21:12:02.163Z,110.30
2023-05-23T21:14:29.911Z,116.40
2023-05-23T21:16:57.661Z,135.90
2023-05-23T21:19:25.647Z,135.20
2023-05-23T21:21:53.568Z,120.40
2023-05-23T21:24:21.938Z,97.40
2023-05-23T21:26:50.323Z,78.60
2023-05-23T21:29:18.057Z,60.80
2023-05-23T21:31:45.844Z,50.90
2023-05-23T21:34:23.181Z,41.10
2023-05-23T21:36:52.885Z,28.70
2023-05-23T21:39:21.362Z,20.00
2023-05-23T21:41:49.089Z,16.30
2023-05-23T21:44:18.014Z,12.60
2023-05-23T21:46:46.154Z,10.00
2023-05-23T21:49:14.432Z,8.60
2023-05-23T21:51:42.491Z,9.00
2023-05-23T21:54:10.764Z,8.30
2023-05-23T21:56:38.492Z,8.10
2023-05-23T21:59:06.201Z,8.10
2023-05-23T22:01:35.304Z,6.80
2023-05-23T22:04:03.098Z,7.10
2023-05-23T22:06:33.338Z,7.10
2023-05-23T22:09:01.067Z,6.90
2023-05-23T22:11:34.235Z,6.70
2023-05-23T22:16:34.440Z,6.10
2023-05-23T22:19:05.288Z,6.80
2023-05-23T22:21:33.100Z,6.70
2023-05-23T22:24:01.009Z,7.40
2023-05-23T22:26:29.603Z,7.10
2023-05-23T22:28:57.872Z,7.00
2023-05-23T22:31:26.631Z,7.40
2023-05-23T22:33:54.743Z,6.60
2023-05-23T22:36:22.476Z,6.70
2023-05-23T22:38:50.371Z,6.60
2023-05-23T22:41:18.349Z,7.60
2023-05-23T22:43:47.076Z,7.30
2023-05-23T22:46:15.015Z,7.40
2023-05-23T22:48:42.958Z,7.20
2023-05-23T22:51:12.642Z,7.30
2023-05-23T22:53:41.351Z,6.80
2023-05-23T22:56:09.120Z,7.60
2023-05-23T22:58:37.646Z,7.50
2023-05-23T23:01:05.406Z,7.60
2023-05-23T23:03:33.642Z,7.00
2023-05-23T23:06:01.366Z,6.40
2023-05-23T23:08:29.055Z,7.20
2023-05-23T23:10:56.802Z,7.70
2023-05-23T23:13:24.558Z,7.60
2023-05-23T23:15:52.745Z,8.10
2023-05-23T23:18:20.512Z,7.40
2023-05-23T23:20:48.573Z,7.60
2023-05-23T23:23:16.417Z,6.90
2023-05-23T23:25:45.261Z,6.40
2023-05-23T23:28:12.997Z,7.60
2023-05-23T23:30:43.747Z,8.00
2023-05-23T23:33:12.289Z,7.90
2023-05-23T23:35:40.145Z,7.50
2023-05-23T23:38:07.950Z,7.60
2023-05-23T23:40:35.656Z,7.50
2023-05-23T23:43:03.410Z,7.00
2023-05-23T23:45:31.089Z,7.60
2023-05-23T23:47:58.840Z,6.90
2023-05-23T23:50:27.107Z,7.40
2023-05-23T23:52:54.832Z,7.70
2023-05-23T23:55:22.752Z,7.50
2023-05-23T23:57:50.547Z,7.90
